sensor_id;sensor_type;location;lat;lon;timestamp;pressure;altitude;pressure_sealevel;temperature;humidity
60015;BME280;45867;52.480;6.056;2023-05-22T00:00:51;101495.88;;;16.55;100.00
60015;BME280;45867;52.480;6.056;2023-05-22T00:03:19;101485.81;;;16.47;100.00
60015;BME280;45867;52.480;6.056;2023-05-22T00:05:44;101490.31;;;16.51;100.00
60015;BME280;45867;52.480;6.056;2023-05-22T00:08:10;101494.56;;;16.52;100.00
60015;BME280;45867;52.480;6.056;2023-05-22T00:10:38;101491.91;;;16.52;100.00
60015;BME280;45867;52.480;6.056;2023-05-22T00:13:04;101478.09;;;16.45;100.00
60015;BME280;45867;52.480;6.056;2023-05-22T00:15:30;101483.28;;;16.55;100.00
60015;BME280;45867;52.480;6.056;2023-05-22T00:17:55;101478.53;;;16.52;100.00
60015;BME280;45867;52.480;6.056;2023-05-22T00:20:21;101458.81;;;16.48;100.00
60015;BME280;45867;52.480;6.056;2023-05-22T00:22:47;101464.34;;;16.52;100.00
60015;BME280;45867;52.480;6.056;2023-05-22T00:25:14;101455.53;;;16.51;100.00
60015;BME280;45867;52.480;6.056;2023-05-22T00:27:41;101444.59;;;16.48;100.00
60015;BME280;45867;52.480;6.056;2023-05-22T00:30:07;101437.41;;;16.48;100.00
60015;BME280;45867;52.480;6.056;2023-05-22T00:32:33;101423.78;;;16.45;100.00
60015;BME280;45867;52.480;6.056;2023-05-22T00:34:58;101420.03;;;16.46;100.00
60015;BME280;45867;52.480;6.056;2023-05-22T00:37:23;101408.63;;;16.40;100.00
60015;BME280;45867;52.480;6.056;2023-05-22T00:39:49;101416.34;;;16.41;100.00
60015;BME280;45867;52.480;6.056;2023-05-22T00:42:15;101404.47;;;16.48;100.00
60015;BME280;45867;52.480;6.056;2023-05-22T00:44:40;101406.28;;;16.52;100.00
60015;BME280;45867;52.480;6.056;2023-05-22T00:47:06;101398.84;;;16.49;100.00
60015;BME280;45867;52.480;6.056;2023-05-22T00:49:32;101371.97;;;16.40;100.00
60015;BME280;45867;52.480;6.056;2023-05-22T00:51:57;101378.63;;;16.43;100.00
60015;BME280;45867;52.480;6.056;2023-05-22T00:54:22;101373.03;;;16.39;100.00
60015;BME280;45867;52.480;6.056;2023-05-22T00:56:48;101376.94;;;16.47;100.00
60015;BME280;45867;52.480;6.056;2023-05-22T00:59:15;101356.63;;;16.46;100.00
60015;BME280;45867;52.480;6.056;2023-05-22T01:01:41;101358.28;;;16.42;100.00
60015;BME280;45867;52.480;6.056;2023-05-22T01:04:09;101363.09;;;16.45;100.00
60015;BME280;45867;52.480;6.056;2023-05-22T01:06:35;101359.31;;;16.46;100.00
60015;BME280;45867;52.480;6.056;2023-05-22T01:09:00;101349.47;;;16.41;100.00
60015;BME280;45867;52.480;6.056;2023-05-22T01:11:50;101351.63;;;16.39;100.00
60015;BME280;45867;52.480;6.056;2023-05-22T01:14:43;101349.47;;;16.41;100.00
60015;BME280;45867;52.480;6.056;2023-05-22T01:17:20;101350.25;;;16.42;100.00
60015;BME280;45867;52.480;6.056;2023-05-22T01:31:05;101350.72;;;16.30;100.00
60015;BME280;45867;52.480;6.056;2023-05-22T01:33:40;101358.53;;;16.27;100.00
60015;BME280;45867;52.480;6.056;2023-05-22T01:36:08;101359.22;;;16.18;100.00
60015;BME280;45867;52.480;6.056;2023-05-22T01:38:34;101347.78;;;16.13;100.00
60015;BME280;45867;52.480;6.056;2023-05-22T01:41:00;101354.72;;;16.14;100.00
60015;BME280;45867;52.480;6.056;2023-05-22T01:43:26;101351.47;;;16.17;100.00
60015;BME280;45867;52.480;6.056;2023-05-22T01:45:51;101347.06;;;16.07;100.00
60015;BME280;45867;52.480;6.056;2023-05-22T01:48:17;101337.81;;;16.00;100.00
60015;BME280;45867;52.480;6.056;2023-05-22T01:50:42;101329.28;;;15.97;100.00
60015;BME280;45867;52.480;6.056;2023-05-22T01:56:14;101314.34;;;15.96;100.00
60015;BME280;45867;52.480;6.056;2023-05-22T01:58:55;101306.34;;;15.96;100.00
60015;BME280;45867;52.480;6.056;2023-05-22T02:01:26;101294.53;;;15.97;100.00
60015;BME280;45867;52.480;6.056;2023-05-22T02:03:56;101284.66;;;15.98;100.00
60015;BME280;45867;52.480;6.056;2023-05-22T02:06:24;101277.72;;;15.97;100.00
60015;BME280;45867;52.480;6.056;2023-05-22T02:08:51;101270.78;;;15.96;100.00
60015;BME280;45867;52.480;6.056;2023-05-22T02:11:18;101283.56;;;15.99;100.00
60015;BME280;45867;52.480;6.056;2023-05-22T02:13:46;101270.88;;;15.91;100.00
60015;BME280;45867;52.480;6.056;2023-05-22T02:16:11;101282.03;;;15.93;100.00
60015;BME280;45867;52.480;6.056;2023-05-22T02:18:38;101275.13;;;15.92;100.00
60015;BME280;45867;52.480;6.056;2023-05-22T02:21:05;101282.63;;;15.90;100.00
60015;BME280;45867;52.480;6.056;2023-05-22T02:23:33;101278.31;;;15.94;100.00
60015;BME280;45867;52.480;6.056;2023-05-22T02:25:58;101277.50;;;15.93;100.00
60015;BME280;45867;52.480;6.056;2023-05-22T02:28:23;101261.84;;;15.87;100.00
60015;BME280;45867;52.480;6.056;2023-05-22T02:30:49;101273.75;;;15.94;100.00
60015;BME280;45867;52.480;6.056;2023-05-22T02:33:14;101265.53;;;15.91;100.00
60015;BME280;45867;52.480;6.056;2023-05-22T02:35:42;101275.84;;;15.97;100.00
60015;BME280;45867;52.480;6.056;2023-05-22T02:38:07;101261.56;;;15.88;100.00
60015;BME280;45867;52.480;6.056;2023-05-22T02:40:33;101275.72;;;15.89;100.00
60015;BME280;45867;52.480;6.056;2023-05-22T02:42:58;101265.88;;;15.84;100.00
60015;BME280;45867;52.480;6.056;2023-05-22T02:45:24;101272.00;;;15.85;100.00
60015;BME280;45867;52.480;6.056;2023-05-22T02:47:49;101266.78;;;15.80;100.00
60015;BME280;45867;52.480;6.056;2023-05-22T02:50:14;101279.25;;;15.84;100.00
60015;BME280;45867;52.480;6.056;2023-05-22T02:52:40;101278.16;;;15.85;100.00
60015;BME280;45867;52.480;6.056;2023-05-22T02:55:05;101284.59;;;15.84;100.00
60015;BME280;45867;52.480;6.056;2023-05-22T02:57:32;101272.13;;;15.80;100.00
60015;BME280;45867;52.480;6.056;2023-05-22T02:59:57;101266.25;;;15.78;100.00
60015;BME280;45867;52.480;6.056;2023-05-22T03:02:24;101265.94;;;15.79;100.00
60015;BME280;45867;52.480;6.056;2023-05-22T03:04:50;101265.47;;;15.77;100.00
60015;BME280;45867;52.480;6.056;2023-05-22T03:07:16;101263.44;;;15.69;100.00
60015;BME280;45867;52.480;6.056;2023-05-22T03:09:41;101273.84;;;15.70;100.00
60015;BME280;45867;52.480;6.056;2023-05-22T03:12:07;101273.88;;;15.65;100.00
60015;BME280;45867;52.480;6.056;2023-05-22T03:14:33;101268.31;;;15.62;100.00
60015;BME280;45867;52.480;6.056;2023-05-22T03:16:58;101268.69;;;15.55;100.00
60015;BME280;45867;52.480;6.056;2023-05-22T03:19:23;101279.88;;;15.57;100.00
60015;BME280;45867;52.480;6.056;2023-05-22T03:21:49;101286.63;;;15.49;100.00
60015;BME280;45867;52.480;6.056;2023-05-22T03:24:14;101281.59;;;15.48;100.00
60015;BME280;45867;52.480;6.056;2023-05-22T03:26:40;101287.94;;;15.52;100.00
60015;BME280;45867;52.480;6.056;2023-05-22T03:29:06;101278.13;;;15.47;100.00
60015;BME280;45867;52.480;6.056;2023-05-22T03:31:32;101273.06;;;15.46;100.00
60015;BME280;45867;52.480;6.056;2023-05-22T03:33:58;101272.34;;;15.40;100.00
60015;BME280;45867;52.480;6.056;2023-05-22T03:36:24;101277.63;;;15.45;100.00
60015;BME280;45867;52.480;6.056;2023-05-22T03:38:50;101279.56;;;15.40;100.00
60015;BME280;45867;52.480;6.056;2023-05-22T03:41:16;101280.09;;;15.42;100.00
60015;BME280;45867;52.480;6.056;2023-05-22T03:43:41;101258.47;;;15.38;100.00
60015;BME280;45867;52.480;6.056;2023-05-22T03:46:06;101263.34;;;15.36;100.00
60015;BME280;45867;52.480;6.056;2023-05-22T03:48:32;101270.25;;;15.37;100.00
60015;BME280;45867;52.480;6.056;2023-05-22T03:50:58;101272.13;;;15.37;100.00
60015;BME280;45867;52.480;6.056;2023-05-22T03:53:23;101270.09;;;15.28;100.00
60015;BME280;45867;52.480;6.056;2023-05-22T03:55:49;101261.38;;;15.23;100.00
60015;BME280;45867;52.480;6.056;2023-05-22T03:58:14;101258.63;;;15.28;100.00
60015;BME280;45867;52.480;6.056;2023-05-22T04:00:39;101262.81;;;15.34;100.00
60015;BME280;45867;52.480;6.056;2023-05-22T04:03:06;101259.28;;;15.39;100.00
60015;BME280;45867;52.480;6.056;2023-05-22T04:05:40;101268.31;;;15.43;100.00
60015;BME280;45867;52.480;6.056;2023-05-22T04:08:06;101253.97;;;15.39;100.00
60015;BME280;45867;52.480;6.056;2023-05-22T04:10:31;101269.41;;;15.42;100.00
60015;BME280;45867;52.480;6.056;2023-05-22T04:12:57;101272.22;;;15.50;100.00
60015;BME280;45867;52.480;6.056;2023-05-22T04:15:23;101276.47;;;15.51;100.00
60015;BME280;45867;52.480;6.056;2023-05-22T04:17:48;101269.63;;;15.45;100.00
60015;BME280;45867;52.480;6.056;2023-05-22T04:20:14;101275.09;;;15.54;100.00
60015;BME280;45867;52.480;6.056;2023-05-22T04:22:39;101273.94;;;15.60;100.00
60015;BME280;45867;52.480;6.056;2023-05-22T04:25:05;101277.97;;;15.58;100.00
60015;BME280;45867;52.480;6.056;2023-05-22T04:27:31;101276.13;;;15.58;100.00
60015;BME280;45867;52.480;6.056;2023-05-22T04:29:59;101272.63;;;15.58;100.00
60015;BME280;45867;52.480;6.056;2023-05-22T04:32:24;101267.88;;;15.54;100.00
60015;BME280;45867;52.480;6.056;2023-05-22T04:34:50;101276.25;;;15.67;100.00
60015;BME280;45867;52.480;6.056;2023-05-22T04:37:16;101269.59;;;15.69;100.00
60015;BME280;45867;52.480;6.056;2023-05-22T04:39:43;101262.34;;;15.70;100.00
60015;BME280;45867;52.480;6.056;2023-05-22T04:42:12;101267.16;;;15.68;100.00
60015;BME280;45867;52.480;6.056;2023-05-22T04:44:39;101258.31;;;15.72;100.00
60015;BME280;45867;52.480;6.056;2023-05-22T04:47:06;101274.78;;;15.80;100.00
60015;BME280;45867;52.480;6.056;2023-05-22T04:49:33;101260.03;;;15.82;100.00
60015;BME280;45867;52.480;6.056;2023-05-22T04:51:58;101255.13;;;15.89;100.00
60015;BME280;45867;52.480;6.056;2023-05-22T04:54:28;101272.88;;;15.99;100.00
60015;BME280;45867;52.480;6.056;2023-05-22T04:56:54;101257.44;;;15.96;100.00
60015;BME280;45867;52.480;6.056;2023-05-22T04:59:19;101261.69;;;15.97;100.00
60015;BME280;45867;52.480;6.056;2023-05-22T05:01:47;101250.69;;;15.98;100.00
60015;BME280;45867;52.480;6.056;2023-05-22T05:04:14;101254.50;;;16.11;100.00
60015;BME280;45867;52.480;6.056;2023-05-22T05:06:40;101252.59;;;16.12;100.00
60015;BME280;45867;52.480;6.056;2023-05-22T05:09:07;101253.44;;;16.12;100.00
60015;BME280;45867;52.480;6.056;2023-05-22T05:11:35;101248.63;;;16.09;100.00
60015;BME280;45867;52.480;6.056;2023-05-22T05:14:00;101252.59;;;16.12;100.00
60015;BME280;45867;52.480;6.056;2023-05-22T05:16:26;101245.41;;;16.12;100.00
60015;BME280;45867;52.480;6.056;2023-05-22T05:18:51;101256.63;;;16.28;100.00
60015;BME280;45867;52.480;6.056;2023-05-22T05:21:18;101262.22;;;16.46;100.00
60015;BME280;45867;52.480;6.056;2023-05-22T05:23:44;101255.50;;;16.48;100.00
60015;BME280;45867;52.480;6.056;2023-05-22T05:26:10;101257.94;;;16.58;100.00
60015;BME280;45867;52.480;6.056;2023-05-22T05:28:36;101260.25;;;16.65;100.00
60015;BME280;45867;52.480;6.056;2023-05-22T05:31:01;101253.28;;;16.64;100.00
60015;BME280;45867;52.480;6.056;2023-05-22T05:33:27;101258.28;;;16.71;100.00
60015;BME280;45867;52.480;6.056;2023-05-22T05:35:52;101247.16;;;16.63;100.00
60015;BME280;45867;52.480;6.056;2023-05-22T05:38:18;101259.50;;;16.78;100.00
60015;BME280;45867;52.480;6.056;2023-05-22T05:40:43;101261.09;;;16.79;100.00
60015;BME280;45867;52.480;6.056;2023-05-22T05:43:12;101246.97;;;16.74;100.00
60015;BME280;45867;52.480;6.056;2023-05-22T05:45:52;101256.03;;;16.92;100.00
60015;BME280;45867;52.480;6.056;2023-05-22T05:48:18;101253.34;;;17.19;100.00
60015;BME280;45867;52.480;6.056;2023-05-22T05:50:58;101237.03;;;17.29;100.00
60015;BME280;45867;52.480;6.056;2023-05-22T05:53:23;101238.16;;;17.51;100.00
60015;BME280;45867;52.480;6.056;2023-05-22T05:55:49;101238.63;;;17.30;100.00
60015;BME280;45867;52.480;6.056;2023-05-22T05:59:08;101242.00;;;17.36;100.00
60015;BME280;45867;52.480;6.056;2023-05-22T06:01:34;101244.19;;;17.57;100.00
60015;BME280;45867;52.480;6.056;2023-05-22T06:04:00;101256.34;;;17.90;100.00
60015;BME280;45867;52.480;6.056;2023-05-22T06:06:30;101250.28;;;18.07;100.00
60015;BME280;45867;52.480;6.056;2023-05-22T06:09:07;101243.53;;;18.41;100.00
60015;BME280;45867;52.480;6.056;2023-05-22T06:11:32;101230.19;;;18.27;100.00
60015;BME280;45867;52.480;6.056;2023-05-22T06:13:58;101234.38;;;18.11;100.00
60015;BME280;45867;52.480;6.056;2023-05-22T06:16:24;101242.16;;;18.21;100.00
60015;BME280;45867;52.480;6.056;2023-05-22T06:18:50;101248.03;;;18.23;100.00
60015;BME280;45867;52.480;6.056;2023-05-22T06:21:17;101247.81;;;18.19;100.00
60015;BME280;45867;52.480;6.056;2023-05-22T06:23:45;101260.09;;;18.12;100.00
60015;BME280;45867;52.480;6.056;2023-05-22T06:26:10;101258.22;;;18.12;100.00
60015;BME280;45867;52.480;6.056;2023-05-22T06:28:36;101272.47;;;18.22;100.00
60015;BME280;45867;52.480;6.056;2023-05-22T06:31:01;101270.31;;;18.32;100.00
60015;BME280;45867;52.480;6.056;2023-05-22T06:33:26;101265.94;;;18.36;100.00
60015;BME280;45867;52.480;6.056;2023-05-22T06:35:52;101277.66;;;18.49;100.00
60015;BME280;45867;52.480;6.056;2023-05-22T06:38:20;101271.22;;;18.90;100.00
60015;BME280;45867;52.480;6.056;2023-05-22T06:40:45;101280.13;;;19.08;100.00
60015;BME280;45867;52.480;6.056;2023-05-22T06:43:12;101276.53;;;19.30;100.00
60015;BME280;45867;52.480;6.056;2023-05-22T06:45:37;101284.25;;;19.23;100.00
60015;BME280;45867;52.480;6.056;2023-05-22T06:48:03;101290.94;;;19.43;100.00
60015;BME280;45867;52.480;6.056;2023-05-22T06:50:29;101312.31;;;19.48;100.00
60015;BME280;45867;52.480;6.056;2023-05-22T06:52:55;101311.53;;;19.65;100.00
60015;BME280;45867;52.480;6.056;2023-05-22T06:55:22;101323.09;;;19.74;100.00
60015;BME280;45867;52.480;6.056;2023-05-22T06:57:47;101315.81;;;19.66;100.00
60015;BME280;45867;52.480;6.056;2023-05-22T07:00:13;101334.50;;;19.71;100.00
60015;BME280;45867;52.480;6.056;2023-05-22T07:02:38;101352.53;;;19.88;100.00
60015;BME280;45867;52.480;6.056;2023-05-22T07:05:04;101371.03;;;19.72;100.00
60015;BME280;45867;52.480;6.056;2023-05-22T07:07:30;101374.03;;;19.79;100.00
60015;BME280;45867;52.480;6.056;2023-05-22T07:09:55;101383.38;;;19.73;100.00
60015;BME280;45867;52.480;6.056;2023-05-22T07:12:20;101377.03;;;19.69;100.00
60015;BME280;45867;52.480;6.056;2023-05-22T07:14:50;101401.91;;;19.92;100.00
60015;BME280;45867;52.480;6.056;2023-05-22T07:17:16;101402.84;;;19.87;100.00
60015;BME280;45867;52.480;6.056;2023-05-22T07:19:41;101403.81;;;20.00;100.00
60015;BME280;45867;52.480;6.056;2023-05-22T07:22:06;101414.88;;;20.51;100.00
60015;BME280;45867;52.480;6.056;2023-05-22T07:24:32;101407.00;;;20.54;100.00
60015;BME280;45867;52.480;6.056;2023-05-22T07:26:57;101420.72;;;20.70;100.00
60015;BME280;45867;52.480;6.056;2023-05-22T07:29:22;101429.78;;;20.57;100.00
60015;BME280;45867;52.480;6.056;2023-05-22T07:32:05;101415.38;;;20.35;100.00
60015;BME280;45867;52.480;6.056;2023-05-22T07:34:30;101437.53;;;20.67;100.00
60015;BME280;45867;52.480;6.056;2023-05-22T07:36:59;101457.44;;;21.01;100.00
60015;BME280;45867;52.480;6.056;2023-05-22T07:39:29;101460.88;;;21.10;100.00
60015;BME280;45867;52.480;6.056;2023-05-22T07:41:55;101459.72;;;21.37;100.00
60015;BME280;45867;52.480;6.056;2023-05-22T07:44:20;101467.28;;;21.44;100.00
60015;BME280;45867;52.480;6.056;2023-05-22T07:46:45;101478.59;;;21.28;100.00
60015;BME280;45867;52.480;6.056;2023-05-22T07:49:11;101474.63;;;21.26;100.00
60015;BME280;45867;52.480;6.056;2023-05-22T07:51:37;101484.63;;;21.25;100.00
60015;BME280;45867;52.480;6.056;2023-05-22T07:54:02;101492.28;;;21.62;100.00
60015;BME280;45867;52.480;6.056;2023-05-22T07:56:27;101485.84;;;22.05;100.00
60015;BME280;45867;52.480;6.056;2023-05-22T07:58:53;101496.75;;;21.87;100.00
60015;BME280;45867;52.480;6.056;2023-05-22T08:01:19;101486.06;;;22.42;100.00
60015;BME280;45867;52.480;6.056;2023-05-22T08:03:44;101502.16;;;23.25;100.00
60015;BME280;45867;52.480;6.056;2023-05-22T08:06:10;101504.88;;;23.62;100.00
60015;BME280;45867;52.480;6.056;2023-05-22T08:08:36;101512.63;;;24.13;100.00
60015;BME280;45867;52.480;6.056;2023-05-22T08:11:01;101514.91;;;24.11;100.00
60015;BME280;45867;52.480;6.056;2023-05-22T08:13:27;101503.91;;;24.32;100.00
60015;BME280;45867;52.480;6.056;2023-05-22T08:15:52;101517.25;;;25.09;100.00
60015;BME280;45867;52.480;6.056;2023-05-22T08:18:17;101512.31;;;24.83;100.00
60015;BME280;45867;52.480;6.056;2023-05-22T08:20:43;101511.19;;;24.56;100.00
60015;BME280;45867;52.480;6.056;2023-05-22T08:23:08;101509.22;;;24.69;100.00
60015;BME280;45867;52.480;6.056;2023-05-22T08:25:33;101506.22;;;24.86;100.00
60015;BME280;45867;52.480;6.056;2023-05-22T08:27:59;101508.38;;;24.80;100.00
60015;BME280;45867;52.480;6.056;2023-05-22T08:30:24;101520.09;;;24.85;100.00
60015;BME280;45867;52.480;6.056;2023-05-22T08:32:49;101527.94;;;24.46;100.00
60015;BME280;45867;52.480;6.056;2023-05-22T08:35:15;101515.09;;;24.71;100.00
60015;BME280;45867;52.480;6.056;2023-05-22T08:37:41;101517.75;;;24.99;100.00
60015;BME280;45867;52.480;6.056;2023-05-22T08:40:09;101523.38;;;24.62;100.00
60015;BME280;45867;52.480;6.056;2023-05-22T08:42:36;101530.25;;;24.59;100.00
60015;BME280;45867;52.480;6.056;2023-05-22T08:45:03;101532.56;;;24.33;100.00
60015;BME280;45867;52.480;6.056;2023-05-22T08:47:29;101526.09;;;24.09;100.00
60015;BME280;45867;52.480;6.056;2023-05-22T08:49:58;101525.94;;;23.44;100.00
60015;BME280;45867;52.480;6.056;2023-05-22T08:52:31;101531.47;;;23.48;100.00
60015;BME280;45867;52.480;6.056;2023-05-22T08:54:58;101524.75;;;23.09;100.00
60015;BME280;45867;52.480;6.056;2023-05-22T08:57:24;101534.69;;;22.63;100.00
60015;BME280;45867;52.480;6.056;2023-05-22T08:59:51;101540.31;;;22.91;100.00
60015;BME280;45867;52.480;6.056;2023-05-22T09:02:17;101533.13;;;22.95;100.00
60015;BME280;45867;52.480;6.056;2023-05-22T09:04:42;101535.53;;;22.75;100.00
60015;BME280;45867;52.480;6.056;2023-05-22T09:07:08;101529.69;;;23.07;100.00
60015;BME280;45867;52.480;6.056;2023-05-22T09:09:39;101528.13;;;23.76;100.00
60015;BME280;45867;52.480;6.056;2023-05-22T09:12:09;101520.22;;;23.95;100.00
60015;BME280;45867;52.480;6.056;2023-05-22T09:14:43;101520.06;;;24.69;100.00
60015;BME280;45867;52.480;6.056;2023-05-22T09:17:10;101523.72;;;26.00;100.00
60015;BME280;45867;52.480;6.056;2023-05-22T09:19:44;101515.84;;;27.11;100.00
60015;BME280;45867;52.480;6.056;2023-05-22T09:22:10;101511.03;;;27.74;100.00
60015;BME280;45867;52.480;6.056;2023-05-22T09:24:40;101526.59;;;28.60;100.00
60015;BME280;45867;52.480;6.056;2023-05-22T09:27:07;101531.00;;;28.38;100.00
60015;BME280;45867;52.480;6.056;2023-05-22T09:29:59;101540.00;;;27.85;100.00
60015;BME280;45867;52.480;6.056;2023-05-22T09:32:28;101536.31;;;28.27;100.00
60015;BME280;45867;52.480;6.056;2023-05-22T09:34:53;101534.03;;;28.63;100.00
60015;BME280;45867;52.480;6.056;2023-05-22T09:37:32;101521.16;;;28.60;100.00
60015;BME280;45867;52.480;6.056;2023-05-22T09:39:58;101534.91;;;29.56;100.00
60015;BME280;45867;52.480;6.056;2023-05-22T09:42:28;101516.88;;;30.00;100.00
60015;BME280;45867;52.480;6.056;2023-05-22T09:44:53;101525.13;;;30.14;100.00
60015;BME280;45867;52.480;6.056;2023-05-22T09:47:18;101531.59;;;30.61;100.00
60015;BME280;45867;52.480;6.056;2023-05-22T09:49:44;101538.72;;;30.84;100.00
60015;BME280;45867;52.480;6.056;2023-05-22T09:52:10;101525.81;;;30.95;100.00
60015;BME280;45867;52.480;6.056;2023-05-22T09:54:48;101524.66;;;31.07;100.00
60015;BME280;45867;52.480;6.056;2023-05-22T09:57:16;101521.13;;;31.56;100.00
60015;BME280;45867;52.480;6.056;2023-05-22T09:59:49;101511.56;;;32.22;100.00
60015;BME280;45867;52.480;6.056;2023-05-22T10:02:20;101513.63;;;32.81;91.77
60015;BME280;45867;52.480;6.056;2023-05-22T10:04:47;101513.28;;;31.76;94.62
60015;BME280;45867;52.480;6.056;2023-05-22T10:07:14;101516.34;;;32.07;99.50
60015;BME280;45867;52.480;6.056;2023-05-22T10:09:40;101513.59;;;32.07;94.64
60015;BME280;45867;52.480;6.056;2023-05-22T10:12:08;101512.78;;;32.87;97.54
60015;BME280;45867;52.480;6.056;2023-05-22T10:14:35;101512.47;;;33.30;96.71
60015;BME280;45867;52.480;6.056;2023-05-22T10:17:00;101495.84;;;33.00;88.80
60015;BME280;45867;52.480;6.056;2023-05-22T10:19:29;101515.56;;;32.84;85.05
60015;BME280;45867;52.480;6.056;2023-05-22T10:21:59;101504.66;;;32.73;91.17
60015;BME280;45867;52.480;6.056;2023-05-22T10:24:24;101501.47;;;33.30;90.71
60015;BME280;45867;52.480;6.056;2023-05-22T10:26:50;101500.19;;;33.42;89.00
60015;BME280;45867;52.480;6.056;2023-05-22T10:29:24;101501.81;;;34.12;79.06
60015;BME280;45867;52.480;6.056;2023-05-22T10:32:00;101499.56;;;33.99;78.68
60015;BME280;45867;52.480;6.056;2023-05-22T10:34:37;101496.19;;;34.22;81.70
60015;BME280;45867;52.480;6.056;2023-05-22T10:42:13;101497.22;;;34.32;73.11
60015;BME280;45867;52.480;6.056;2023-05-22T10:44:39;101488.38;;;34.75;74.74
60015;BME280;45867;52.480;6.056;2023-05-22T10:47:09;101478.41;;;34.58;72.68
60015;BME280;45867;52.480;6.056;2023-05-22T10:49:35;101481.97;;;34.28;76.42
60015;BME280;45867;52.480;6.056;2023-05-22T10:52:02;101487.16;;;33.88;76.89
60015;BME280;45867;52.480;6.056;2023-05-22T10:54:41;101485.94;;;34.23;74.50
60015;BME280;45867;52.480;6.056;2023-05-22T10:59:36;101483.31;;;34.43;72.63
60015;BME280;45867;52.480;6.056;2023-05-22T11:02:04;101488.50;;;34.68;70.57
60015;BME280;45867;52.480;6.056;2023-05-22T11:04:30;101483.44;;;34.36;70.19
60015;BME280;45867;52.480;6.056;2023-05-22T11:07:03;101489.34;;;33.28;80.18
60015;BME280;45867;52.480;6.056;2023-05-22T11:09:38;101483.69;;;32.97;82.54
60015;BME280;45867;52.480;6.056;2023-05-22T11:12:27;101478.97;;;33.84;75.74
60015;BME280;45867;52.480;6.056;2023-05-22T11:17:21;101488.25;;;35.09;71.36
60015;BME280;45867;52.480;6.056;2023-05-22T11:20:03;101476.47;;;35.05;71.24
60015;BME280;45867;52.480;6.056;2023-05-22T11:22:40;101483.88;;;35.12;67.26
60015;BME280;45867;52.480;6.056;2023-05-22T11:25:12;101477.91;;;36.17;58.09
60015;BME280;45867;52.480;6.056;2023-05-22T11:27:40;101465.28;;;35.16;63.46
60015;BME280;45867;52.480;6.056;2023-05-22T11:30:06;101470.78;;;35.16;58.53
60015;BME280;45867;52.480;6.056;2023-05-22T11:32:34;101467.16;;;36.22;63.38
60015;BME280;45867;52.480;6.056;2023-05-22T11:35:00;101462.50;;;35.99;55.24
60015;BME280;45867;52.480;6.056;2023-05-22T11:37:26;101459.13;;;35.08;62.98
60015;BME280;45867;52.480;6.056;2023-05-22T11:39:55;101458.34;;;36.11;60.58
60015;BME280;45867;52.480;6.056;2023-05-22T11:42:21;101449.16;;;36.34;57.06
60015;BME280;45867;52.480;6.056;2023-05-22T11:44:46;101456.31;;;36.32;62.76
60015;BME280;45867;52.480;6.056;2023-05-22T11:47:14;101450.88;;;35.72;57.15
60015;BME280;45867;52.480;6.056;2023-05-22T11:49:40;101453.13;;;35.77;64.21
60015;BME280;45867;52.480;6.056;2023-05-22T11:52:07;101438.44;;;36.53;59.48
60015;BME280;45867;52.480;6.056;2023-05-22T11:54:32;101442.16;;;36.30;54.68
60015;BME280;45867;52.480;6.056;2023-05-22T11:56:57;101435.88;;;36.45;56.94
60015;BME280;45867;52.480;6.056;2023-05-22T11:59:23;101441.44;;;35.89;49.85
60015;BME280;45867;52.480;6.056;2023-05-22T12:01:51;101439.19;;;34.23;59.58
60015;BME280;45867;52.480;6.056;2023-05-22T12:04:16;101445.69;;;34.63;59.69
60015;BME280;45867;52.480;6.056;2023-05-22T12:06:43;101442.78;;;34.47;59.44
60015;BME280;45867;52.480;6.056;2023-05-22T12:09:08;101438.94;;;34.68;51.88
60015;BME280;45867;52.480;6.056;2023-05-22T12:11:34;101444.91;;;34.63;58.88
60015;BME280;45867;52.480;6.056;2023-05-22T12:14:02;101441.69;;;35.15;58.20
60015;BME280;45867;52.480;6.056;2023-05-22T12:16:33;101448.75;;;35.16;52.52
60015;BME280;45867;52.480;6.056;2023-05-22T12:19:03;101442.06;;;35.17;53.65
60015;BME280;45867;52.480;6.056;2023-05-22T12:21:29;101439.50;;;33.67;54.93
60015;BME280;45867;52.480;6.056;2023-05-22T12:23:55;101443.78;;;34.02;63.24
60015;BME280;45867;52.480;6.056;2023-05-22T12:26:20;101450.34;;;34.39;62.52
60015;BME280;45867;52.480;6.056;2023-05-22T12:28:46;101455.44;;;34.41;52.76
60015;BME280;45867;52.480;6.056;2023-05-22T12:31:19;101451.72;;;34.28;56.14
60015;BME280;45867;52.480;6.056;2023-05-22T12:33:44;101453.19;;;33.33;59.03
60015;BME280;45867;52.480;6.056;2023-05-22T12:36:10;101454.81;;;32.78;64.79
60015;BME280;45867;52.480;6.056;2023-05-22T12:38:36;101457.31;;;31.67;65.77
60015;BME280;45867;52.480;6.056;2023-05-22T12:41:03;101453.34;;;31.93;68.48
60015;BME280;45867;52.480;6.056;2023-05-22T12:43:28;101459.31;;;31.34;70.85
60015;BME280;45867;52.480;6.056;2023-05-22T12:45:53;101453.16;;;32.32;68.24
60015;BME280;45867;52.480;6.056;2023-05-22T12:48:19;101450.88;;;32.83;65.83
60015;BME280;45867;52.480;6.056;2023-05-22T12:50:45;101454.53;;;31.77;65.08
60015;BME280;45867;52.480;6.056;2023-05-22T12:53:11;101449.19;;;31.38;71.83
60015;BME280;45867;52.480;6.056;2023-05-22T12:55:37;101444.47;;;31.21;73.06
60015;BME280;45867;52.480;6.056;2023-05-22T12:58:02;101454.59;;;31.56;78.75
60015;BME280;45867;52.480;6.056;2023-05-22T13:00:28;101455.03;;;30.83;76.00
60015;BME280;45867;52.480;6.056;2023-05-22T13:02:54;101448.34;;;29.60;82.77
60015;BME280;45867;52.480;6.056;2023-05-22T13:05:19;101448.63;;;28.52;93.17
60015;BME280;45867;52.480;6.056;2023-05-22T13:07:45;101451.28;;;27.58;100.00